Portada
METAR-TAF:

METAR-TAF

Aeroports :

Zahedan, Iran

latitud: 29-28N, longitud: 060-53E, altitud: 1370 m

Observació

L'informe es va fer fa 19 minuts, a les 18:00 UTC
Vent 6 kt del Nord/Nord-Est
Temperatura 28°C
Humitat 17%
Pressió 1019 hPa
Visibilitat 10 km o més
sense núvols per sota de 1500 mi sense presència de cumulonimbus.

METAR: OIZH 261800Z 03006KT CAVOK 28/01 Q1019 A3009

Hora: 22:49 (18:19 UTC)

Pronòstic

L'informe es va fer fa 49 minuts, a les 17:30 UTC
Pronòstic vàlid del 26 a les 18 UTC al 27 a les 24 UTC
Vent 8 kt del Nord/Nord-Est
Visibilitat: 7000 m
Escasses núvols a una alçada de 4000 ft
Evolucionant progressivament
l' 27 a les 06 UTC al 27 a les 08 UTC
Vent 12 kt del Nord
Temporalment
l' 27 a les 08 UTC al 27 a les 18 UTC
Vent 16 kt del Nord amb ràfegues de 26 kt
Visibilitat: 4000 m
sorra

TAF: OIZH 261730Z 2618/2724 02008KT 7000 FEW040 BECMG 2706/2708 01012KT TEMPO 2708/2718 01016G26KT 4000 SA

Observacions i pronòstics meteorològics de més de 4000 aeroports (METAR i TAF).

Les estacions disponibles són els punts grocs i vermells al mapa.

Posi el ratolí al punt desitjat per veure el nom de l'estació.

Feu clic per veure les observacions i els pronòstics meteorològics.

Per canviar el mapa: feu clic els botons verds amb una creu de color negre per apropar; al botó verd amb un guió per allunyar la imatge; o en les fletxes verdes per a mapes adjacents.


METAR-TAF: